sensor_id;sensor_type;location;lat;lon;timestamp;P1;durP1;ratioP1;P2;durP2;ratioP2
67344;SDS011;54230;52.402;6.276;2022-08-25T00:00:00;11.5;;;8.8;;
67344;SDS011;54230;52.402;6.276;2022-08-25T00:05:00;10.8;;;8.5;;
67344;SDS011;54230;52.402;6.276;2022-08-25T00:10:00;12.5;;;8.8;;
67344;SDS011;54230;52.402;6.276;2022-08-25T00:15:00;10.6;;;8.3;;
67344;SDS011;54230;52.402;6.276;2022-08-25T00:20:00;13.8;;;8.8;;
67344;SDS011;54230;52.402;6.276;2022-08-25T00:25:00;12.5;;;8.6;;
67344;SDS011;54230;52.402;6.276;2022-08-25T00:30:00;11.3;;;8.7;;
67344;SDS011;54230;52.402;6.276;2022-08-25T00:35:00;13.4;;;8.6;;
67344;SDS011;54230;52.402;6.276;2022-08-25T00:40:00;12.5;;;9.0;;
67344;SDS011;54230;52.402;6.276;2022-08-25T00:45:00;12.5;;;8.7;;
67344;SDS011;54230;52.402;6.276;2022-08-25T00:50:00;13.7;;;9.1;;
67344;SDS011;54230;52.402;6.276;2022-08-25T00:55:01;12.7;;;8.7;;
67344;SDS011;54230;52.402;6.276;2022-08-25T01:00:00;14.6;;;8.3;;
67344;SDS011;54230;52.402;6.276;2022-08-25T01:05:00;13.4;;;8.5;;
67344;SDS011;54230;52.402;6.276;2022-08-25T01:10:00;11.4;;;8.2;;
67344;SDS011;54230;52.402;6.276;2022-08-25T01:15:00;13.4;;;8.3;;
67344;SDS011;54230;52.402;6.276;2022-08-25T01:20:00;12.0;;;8.3;;
67344;SDS011;54230;52.402;6.276;2022-08-25T01:25:00;10.6;;;7.7;;
67344;SDS011;54230;52.402;6.276;2022-08-25T01:30:00;10.8;;;7.8;;
67344;SDS011;54230;52.402;6.276;2022-08-25T01:35:00;14.4;;;7.5;;
67344;SDS011;54230;52.402;6.276;2022-08-25T01:40:00;12.8;;;7.3;;
67344;SDS011;54230;52.402;6.276;2022-08-25T01:45:00;9.6;;;7.3;;
67344;SDS011;54230;52.402;6.276;2022-08-25T01:50:00;12.2;;;7.2;;
67344;SDS011;54230;52.402;6.276;2022-08-25T01:55:00;10.4;;;6.7;;
67344;SDS011;54230;52.402;6.276;2022-08-25T02:00:00;12.9;;;6.8;;
67344;SDS011;54230;52.402;6.276;2022-08-25T02:05:00;11.3;;;6.6;;
67344;SDS011;54230;52.402;6.276;2022-08-25T02:10:00;9.9;;;5.9;;
67344;SDS011;54230;52.402;6.276;2022-08-25T02:15:00;10.3;;;5.6;;
67344;SDS011;54230;52.402;6.276;2022-08-25T02:20:00;9.0;;;5.8;;
67344;SDS011;54230;52.402;6.276;2022-08-25T02:25:00;9.3;;;4.5;;
67344;SDS011;54230;52.402;6.276;2022-08-25T02:30:00;9.0;;;4.1;;
67344;SDS011;54230;52.402;6.276;2022-08-25T02:35:00;9.6;;;4.3;;
67344;SDS011;54230;52.402;6.276;2022-08-25T02:40:00;10.0;;;4.2;;
67344;SDS011;54230;52.402;6.276;2022-08-25T02:45:00;6.4;;;4.2;;
67344;SDS011;54230;52.402;6.276;2022-08-25T02:50:00;7.2;;;4.3;;
67344;SDS011;54230;52.402;6.276;2022-08-25T02:55:00;9.4;;;4.0;;
67344;SDS011;54230;52.402;6.276;2022-08-25T03:00:00;10.0;;;4.2;;
67344;SDS011;54230;52.402;6.276;2022-08-25T03:05:00;8.8;;;3.9;;
67344;SDS011;54230;52.402;6.276;2022-08-25T03:10:03;8.6;;;3.8;;
67344;SDS011;54230;52.402;6.276;2022-08-25T03:15:00;6.6;;;3.6;;
67344;SDS011;54230;52.402;6.276;2022-08-25T03:20:00;7.3;;;4.1;;
67344;SDS011;54230;52.402;6.276;2022-08-25T03:25:00;8.4;;;4.1;;
67344;SDS011;54230;52.402;6.276;2022-08-25T03:30:00;11.0;;;4.1;;
67344;SDS011;54230;52.402;6.276;2022-08-25T03:35:00;8.0;;;3.9;;
67344;SDS011;54230;52.402;6.276;2022-08-25T03:40:00;16.0;;;4.3;;
67344;SDS011;54230;52.402;6.276;2022-08-25T03:45:00;8.4;;;4.0;;
67344;SDS011;54230;52.402;6.276;2022-08-25T03:50:00;9.2;;;4.3;;
67344;SDS011;54230;52.402;6.276;2022-08-25T03:55:00;8.3;;;4.2;;
67344;SDS011;54230;52.402;6.276;2022-08-25T04:00:00;8.8;;;4.0;;
67344;SDS011;54230;52.402;6.276;2022-08-25T04:05:00;9.5;;;4.3;;
67344;SDS011;54230;52.402;6.276;2022-08-25T04:10:00;9.8;;;4.4;;
67344;SDS011;54230;52.402;6.276;2022-08-25T04:15:00;8.0;;;4.5;;
67344;SDS011;54230;52.402;6.276;2022-08-25T04:20:00;10.8;;;4.6;;
67344;SDS011;54230;52.402;6.276;2022-08-25T04:25:00;8.2;;;4.7;;
67344;SDS011;54230;52.402;6.276;2022-08-25T04:30:00;7.7;;;4.6;;
67344;SDS011;54230;52.402;6.276;2022-08-25T04:35:00;8.4;;;4.0;;
67344;SDS011;54230;52.402;6.276;2022-08-25T04:40:00;6.6;;;3.9;;
67344;SDS011;54230;52.402;6.276;2022-08-25T04:45:00;8.6;;;3.9;;
67344;SDS011;54230;52.402;6.276;2022-08-25T04:50:00;6.2;;;3.9;;
67344;SDS011;54230;52.402;6.276;2022-08-25T04:55:00;8.4;;;4.5;;
67344;SDS011;54230;52.402;6.276;2022-08-25T05:00:00;8.7;;;4.8;;
67344;SDS011;54230;52.402;6.276;2022-08-25T05:05:00;11.2;;;5.0;;
67344;SDS011;54230;52.402;6.276;2022-08-25T05:10:00;10.7;;;4.7;;
67344;SDS011;54230;52.402;6.276;2022-08-25T05:15:00;7.6;;;4.2;;
67344;SDS011;54230;52.402;6.276;2022-08-25T05:20:00;9.9;;;4.3;;
67344;SDS011;54230;52.402;6.276;2022-08-25T05:25:00;6.4;;;4.0;;
67344;SDS011;54230;52.402;6.276;2022-08-25T05:30:00;10.4;;;4.1;;
67344;SDS011;54230;52.402;6.276;2022-08-25T05:35:00;9.5;;;4.3;;
67344;SDS011;54230;52.402;6.276;2022-08-25T05:40:00;8.5;;;4.0;;
67344;SDS011;54230;52.402;6.276;2022-08-25T05:45:00;8.0;;;4.0;;
67344;SDS011;54230;52.402;6.276;2022-08-25T05:50:00;8.0;;;3.9;;
67344;SDS011;54230;52.402;6.276;2022-08-25T05:55:00;6.6;;;3.9;;
67344;SDS011;54230;52.402;6.276;2022-08-25T06:00:00;10.8;;;4.2;;
67344;SDS011;54230;52.402;6.276;2022-08-25T06:05:00;9.0;;;4.0;;
67344;SDS011;54230;52.402;6.276;2022-08-25T06:10:00;6.9;;;3.9;;
67344;SDS011;54230;52.402;6.276;2022-08-25T06:15:00;7.6;;;4.1;;
67344;SDS011;54230;52.402;6.276;2022-08-25T06:20:00;7.7;;;4.0;;
67344;SDS011;54230;52.402;6.276;2022-08-25T06:25:00;9.7;;;4.0;;
67344;SDS011;54230;52.402;6.276;2022-08-25T06:30:00;9.3;;;4.4;;
67344;SDS011;54230;52.402;6.276;2022-08-25T06:35:00;10.8;;;4.2;;
67344;SDS011;54230;52.402;6.276;2022-08-25T06:40:00;8.9;;;4.0;;
67344;SDS011;54230;52.402;6.276;2022-08-25T06:45:00;9.5;;;4.3;;
67344;SDS011;54230;52.402;6.276;2022-08-25T06:50:00;10.0;;;4.2;;
67344;SDS011;54230;52.402;6.276;2022-08-25T06:55:00;7.5;;;4.4;;
67344;SDS011;54230;52.402;6.276;2022-08-25T07:00:00;8.2;;;4.0;;
67344;SDS011;54230;52.402;6.276;2022-08-25T07:05:00;10.8;;;4.6;;
67344;SDS011;54230;52.402;6.276;2022-08-25T07:10:00;10.1;;;4.3;;
67344;SDS011;54230;52.402;6.276;2022-08-25T07:15:00;14.2;;;4.3;;
67344;SDS011;54230;52.402;6.276;2022-08-25T07:20:00;8.9;;;4.1;;
67344;SDS011;54230;52.402;6.276;2022-08-25T07:25:00;11.0;;;4.4;;
67344;SDS011;54230;52.402;6.276;2022-08-25T07:30:00;8.8;;;3.8;;
67344;SDS011;54230;52.402;6.276;2022-08-25T07:35:00;9.5;;;4.2;;
67344;SDS011;54230;52.402;6.276;2022-08-25T07:40:01;8.5;;;3.7;;
67344;SDS011;54230;52.402;6.276;2022-08-25T07:45:00;8.6;;;3.9;;
67344;SDS011;54230;52.402;6.276;2022-08-25T07:50:00;10.8;;;4.2;;
67344;SDS011;54230;52.402;6.276;2022-08-25T07:55:00;11.8;;;3.8;;
67344;SDS011;54230;52.402;6.276;2022-08-25T08:00:00;9.7;;;4.0;;
67344;SDS011;54230;52.402;6.276;2022-08-25T08:05:00;11.7;;;4.5;;
67344;SDS011;54230;52.402;6.276;2022-08-25T08:10:00;10.3;;;4.6;;
67344;SDS011;54230;52.402;6.276;2022-08-25T08:15:00;10.2;;;4.0;;
67344;SDS011;54230;52.402;6.276;2022-08-25T08:20:00;9.7;;;4.2;;
67344;SDS011;54230;52.402;6.276;2022-08-25T08:25:00;9.3;;;3.9;;
67344;SDS011;54230;52.402;6.276;2022-08-25T08:30:00;9.3;;;3.7;;
67344;SDS011;54230;52.402;6.276;2022-08-25T08:35:00;8.5;;;3.8;;
67344;SDS011;54230;52.402;6.276;2022-08-25T08:40:00;9.2;;;3.7;;
67344;SDS011;54230;52.402;6.276;2022-08-25T08:45:02;8.8;;;3.8;;
67344;SDS011;54230;52.402;6.276;2022-08-25T08:50:01;8.5;;;4.0;;
67344;SDS011;54230;52.402;6.276;2022-08-25T08:55:02;6.7;;;3.9;;
67344;SDS011;54230;52.402;6.276;2022-08-25T09:00:00;8.0;;;3.9;;
67344;SDS011;54230;52.402;6.276;2022-08-25T09:05:00;8.0;;;3.9;;
67344;SDS011;54230;52.402;6.276;2022-08-25T09:10:00;11.5;;;3.4;;
67344;SDS011;54230;52.402;6.276;2022-08-25T09:15:03;9.5;;;3.7;;
67344;SDS011;54230;52.402;6.276;2022-08-25T09:20:06;9.0;;;3.8;;
67344;SDS011;54230;52.402;6.276;2022-08-25T09:25:01;6.7;;;3.8;;
67344;SDS011;54230;52.402;6.276;2022-08-25T09:30:00;6.5;;;3.7;;
67344;SDS011;54230;52.402;6.276;2022-08-25T09:35:00;6.5;;;3.7;;
67344;SDS011;54230;52.402;6.276;2022-08-25T09:40:00;9.6;;;3.6;;
67344;SDS011;54230;52.402;6.276;2022-08-25T09:45:00;6.4;;;3.2;;
67344;SDS011;54230;52.402;6.276;2022-08-25T09:50:00;6.1;;;3.4;;
67344;SDS011;54230;52.402;6.276;2022-08-25T09:55:01;7.3;;;3.4;;
67344;SDS011;54230;52.402;6.276;2022-08-25T10:05:00;6.1;;;3.4;;
67344;SDS011;54230;52.402;6.276;2022-08-25T10:10:00;6.4;;;2.8;;
67344;SDS011;54230;52.402;6.276;2022-08-25T10:15:02;5.7;;;3.2;;
67344;SDS011;54230;52.402;6.276;2022-08-25T10:25:00;5.8;;;3.2;;
67344;SDS011;54230;52.402;6.276;2022-08-25T10:30:04;8.6;;;2.9;;
67344;SDS011;54230;52.402;6.276;2022-08-25T10:35:01;7.4;;;2.6;;
67344;SDS011;54230;52.402;6.276;2022-08-25T10:40:02;5.7;;;2.7;;
67344;SDS011;54230;52.402;6.276;2022-08-25T10:45:05;5.7;;;2.8;;
67344;SDS011;54230;52.402;6.276;2022-08-25T10:50:00;5.9;;;2.7;;
67344;SDS011;54230;52.402;6.276;2022-08-25T10:55:00;5.8;;;2.6;;
67344;SDS011;54230;52.402;6.276;2022-08-25T11:00:01;5.4;;;2.6;;
67344;SDS011;54230;52.402;6.276;2022-08-25T11:05:01;5.2;;;2.5;;
67344;SDS011;54230;52.402;6.276;2022-08-25T11:10:02;5.0;;;2.6;;
67344;SDS011;54230;52.402;6.276;2022-08-25T11:15:01;5.9;;;2.6;;
67344;SDS011;54230;52.402;6.276;2022-08-25T11:20:02;7.4;;;3.1;;
67344;SDS011;54230;52.402;6.276;2022-08-25T11:25:01;4.8;;;2.6;;
67344;SDS011;54230;52.402;6.276;2022-08-25T11:30:03;5.1;;;2.8;;
67344;SDS011;54230;52.402;6.276;2022-08-25T11:35:00;5.1;;;3.0;;
67344;SDS011;54230;52.402;6.276;2022-08-25T11:40:03;5.3;;;2.9;;
67344;SDS011;54230;52.402;6.276;2022-08-25T11:45:02;6.0;;;2.7;;
67344;SDS011;54230;52.402;6.276;2022-08-25T11:50:00;4.4;;;2.9;;
67344;SDS011;54230;52.402;6.276;2022-08-25T11:55:03;5.2;;;2.5;;
67344;SDS011;54230;52.402;6.276;2022-08-25T12:00:01;5.0;;;2.6;;
67344;SDS011;54230;52.402;6.276;2022-08-25T12:05:00;5.3;;;2.3;;
67344;SDS011;54230;52.402;6.276;2022-08-25T12:10:09;4.7;;;2.5;;
67344;SDS011;54230;52.402;6.276;2022-08-25T12:20:00;6.3;;;2.7;;
67344;SDS011;54230;52.402;6.276;2022-08-25T12:25:00;6.9;;;2.8;;
67344;SDS011;54230;52.402;6.276;2022-08-25T12:30:00;5.6;;;2.9;;
67344;SDS011;54230;52.402;6.276;2022-08-25T12:40:00;5.6;;;2.8;;
67344;SDS011;54230;52.402;6.276;2022-08-25T12:45:09;4.6;;;2.4;;
67344;SDS011;54230;52.402;6.276;2022-08-25T12:55:02;5.4;;;2.4;;
67344;SDS011;54230;52.402;6.276;2022-08-25T13:00:00;5.7;;;2.5;;
67344;SDS011;54230;52.402;6.276;2022-08-25T13:05:02;4.0;;;2.4;;
67344;SDS011;54230;52.402;6.276;2022-08-25T13:15:00;5.2;;;2.8;;
67344;SDS011;54230;52.402;6.276;2022-08-25T13:25:00;5.8;;;2.8;;
67344;SDS011;54230;52.402;6.276;2022-08-25T13:30:00;5.3;;;2.8;;
67344;SDS011;54230;52.402;6.276;2022-08-25T13:35:10;5.2;;;2.7;;
67344;SDS011;54230;52.402;6.276;2022-08-25T13:40:07;3.9;;;2.8;;
67344;SDS011;54230;52.402;6.276;2022-08-25T13:45:00;5.0;;;2.9;;
67344;SDS011;54230;52.402;6.276;2022-08-25T13:55:00;4.8;;;2.8;;
67344;SDS011;54230;52.402;6.276;2022-08-25T14:00:01;4.2;;;2.7;;
67344;SDS011;54230;52.402;6.276;2022-08-25T14:05:00;4.8;;;2.6;;
67344;SDS011;54230;52.402;6.276;2022-08-25T14:10:00;6.5;;;2.8;;
67344;SDS011;54230;52.402;6.276;2022-08-25T14:15:01;6.4;;;2.7;;
67344;SDS011;54230;52.402;6.276;2022-08-25T14:20:00;6.6;;;2.7;;
67344;SDS011;54230;52.402;6.276;2022-08-25T14:25:00;4.9;;;2.6;;
67344;SDS011;54230;52.402;6.276;2022-08-25T14:30:00;8.7;;;3.2;;
67344;SDS011;54230;52.402;6.276;2022-08-25T14:35:00;6.7;;;3.0;;
67344;SDS011;54230;52.402;6.276;2022-08-25T14:40:00;4.8;;;2.8;;
67344;SDS011;54230;52.402;6.276;2022-08-25T14:45:00;5.5;;;2.6;;
67344;SDS011;54230;52.402;6.276;2022-08-25T14:50:00;6.3;;;2.7;;
67344;SDS011;54230;52.402;6.276;2022-08-25T14:55:00;5.3;;;2.6;;
67344;SDS011;54230;52.402;6.276;2022-08-25T15:00:00;5.3;;;2.8;;
67344;SDS011;54230;52.402;6.276;2022-08-25T15:05:01;5.0;;;2.7;;
67344;SDS011;54230;52.402;6.276;2022-08-25T15:10:00;3.7;;;2.6;;
67344;SDS011;54230;52.402;6.276;2022-08-25T15:15:00;5.6;;;2.7;;
67344;SDS011;54230;52.402;6.276;2022-08-25T15:20:00;5.5;;;2.9;;
67344;SDS011;54230;52.402;6.276;2022-08-25T15:25:00;5.9;;;2.8;;
67344;SDS011;54230;52.402;6.276;2022-08-25T15:30:00;5.1;;;2.6;;
67344;SDS011;54230;52.402;6.276;2022-08-25T15:35:00;4.3;;;2.8;;
67344;SDS011;54230;52.402;6.276;2022-08-25T15:40:00;5.9;;;2.6;;
67344;SDS011;54230;52.402;6.276;2022-08-25T15:45:00;4.5;;;2.8;;
67344;SDS011;54230;52.402;6.276;2022-08-25T15:50:01;6.1;;;2.8;;
67344;SDS011;54230;52.402;6.276;2022-08-25T15:55:00;6.9;;;2.8;;
67344;SDS011;54230;52.402;6.276;2022-08-25T16:00:00;6.2;;;2.7;;
67344;SDS011;54230;52.402;6.276;2022-08-25T16:05:00;5.3;;;3.0;;
67344;SDS011;54230;52.402;6.276;2022-08-25T16:10:00;5.8;;;2.8;;
67344;SDS011;54230;52.402;6.276;2022-08-25T16:15:00;5.3;;;2.8;;
67344;SDS011;54230;52.402;6.276;2022-08-25T16:20:00;6.5;;;2.8;;
67344;SDS011;54230;52.402;6.276;2022-08-25T16:25:00;4.5;;;2.9;;
67344;SDS011;54230;52.402;6.276;2022-08-25T16:30:00;5.4;;;2.9;;
67344;SDS011;54230;52.402;6.276;2022-08-25T16:35:00;5.0;;;2.9;;
67344;SDS011;54230;52.402;6.276;2022-08-25T16:40:00;6.5;;;2.9;;
67344;SDS011;54230;52.402;6.276;2022-08-25T16:45:00;6.7;;;2.8;;
67344;SDS011;54230;52.402;6.276;2022-08-25T16:50:00;4.1;;;2.8;;
67344;SDS011;54230;52.402;6.276;2022-08-25T16:55:00;4.7;;;2.8;;
67344;SDS011;54230;52.402;6.276;2022-08-25T17:00:00;6.5;;;2.9;;
67344;SDS011;54230;52.402;6.276;2022-08-25T17:05:00;6.3;;;2.9;;
67344;SDS011;54230;52.402;6.276;2022-08-25T17:10:00;6.3;;;2.8;;
67344;SDS011;54230;52.402;6.276;2022-08-25T17:15:00;4.5;;;2.8;;
67344;SDS011;54230;52.402;6.276;2022-08-25T17:20:00;9.2;;;3.0;;
67344;SDS011;54230;52.402;6.276;2022-08-25T17:25:00;4.4;;;2.6;;
67344;SDS011;54230;52.402;6.276;2022-08-25T17:30:00;5.6;;;2.8;;
67344;SDS011;54230;52.402;6.276;2022-08-25T17:35:00;4.2;;;2.5;;
67344;SDS011;54230;52.402;6.276;2022-08-25T17:40:00;6.0;;;2.8;;
67344;SDS011;54230;52.402;6.276;2022-08-25T17:45:00;8.9;;;2.9;;
67344;SDS011;54230;52.402;6.276;2022-08-25T17:50:00;7.7;;;3.5;;
67344;SDS011;54230;52.402;6.276;2022-08-25T17:55:00;7.6;;;3.7;;
67344;SDS011;54230;52.402;6.276;2022-08-25T18:00:00;7.2;;;3.3;;
67344;SDS011;54230;52.402;6.276;2022-08-25T18:05:00;8.9;;;4.1;;
67344;SDS011;54230;52.402;6.276;2022-08-25T18:10:00;6.4;;;3.5;;
67344;SDS011;54230;52.402;6.276;2022-08-25T18:15:00;7.4;;;3.3;;
67344;SDS011;54230;52.402;6.276;2022-08-25T18:20:00;6.7;;;3.1;;
67344;SDS011;54230;52.402;6.276;2022-08-25T18:25:00;6.7;;;3.3;;
67344;SDS011;54230;52.402;6.276;2022-08-25T18:30:00;6.8;;;3.4;;
67344;SDS011;54230;52.402;6.276;2022-08-25T18:35:00;5.9;;;3.3;;
67344;SDS011;54230;52.402;6.276;2022-08-25T18:40:00;7.7;;;3.0;;
67344;SDS011;54230;52.402;6.276;2022-08-25T18:45:00;7.1;;;3.4;;
67344;SDS011;54230;52.402;6.276;2022-08-25T18:50:00;8.5;;;3.3;;
67344;SDS011;54230;52.402;6.276;2022-08-25T18:55:00;7.3;;;3.3;;
67344;SDS011;54230;52.402;6.276;2022-08-25T19:00:00;7.2;;;3.0;;
67344;SDS011;54230;52.402;6.276;2022-08-25T19:05:00;5.2;;;3.1;;
67344;SDS011;54230;52.402;6.276;2022-08-25T19:10:00;6.4;;;3.0;;
67344;SDS011;54230;52.402;6.276;2022-08-25T19:15:00;9.3;;;3.2;;
67344;SDS011;54230;52.402;6.276;2022-08-25T19:20:00;6.0;;;3.1;;
67344;SDS011;54230;52.402;6.276;2022-08-25T19:25:00;5.9;;;3.2;;
67344;SDS011;54230;52.402;6.276;2022-08-25T19:30:00;9.4;;;3.5;;
67344;SDS011;54230;52.402;6.276;2022-08-25T19:35:00;7.4;;;3.7;;
67344;SDS011;54230;52.402;6.276;2022-08-25T19:40:00;8.4;;;3.8;;
67344;SDS011;54230;52.402;6.276;2022-08-25T19:45:00;7.8;;;4.3;;
67344;SDS011;54230;52.402;6.276;2022-08-25T19:50:00;7.6;;;3.8;;
67344;SDS011;54230;52.402;6.276;2022-08-25T19:55:00;7.1;;;4.1;;
67344;SDS011;54230;52.402;6.276;2022-08-25T20:00:00;10.4;;;4.4;;
67344;SDS011;54230;52.402;6.276;2022-08-25T20:05:00;8.0;;;3.8;;
67344;SDS011;54230;52.402;6.276;2022-08-25T20:10:00;7.3;;;4.0;;
67344;SDS011;54230;52.402;6.276;2022-08-25T20:15:00;32.7;;;4.6;;
67344;SDS011;54230;52.402;6.276;2022-08-25T20:20:00;10.3;;;4.3;;
67344;SDS011;54230;52.402;6.276;2022-08-25T20:25:01;6.9;;;4.0;;
67344;SDS011;54230;52.402;6.276;2022-08-25T20:30:00;9.0;;;4.3;;
67344;SDS011;54230;52.402;6.276;2022-08-25T20:35:00;9.2;;;4.2;;
67344;SDS011;54230;52.402;6.276;2022-08-25T20:40:00;8.8;;;4.2;;
67344;SDS011;54230;52.402;6.276;2022-08-25T20:45:00;9.2;;;4.3;;
67344;SDS011;54230;52.402;6.276;2022-08-25T20:50:00;8.5;;;4.4;;
67344;SDS011;54230;52.402;6.276;2022-08-25T20:55:00;9.1;;;4.5;;
67344;SDS011;54230;52.402;6.276;2022-08-25T21:00:00;8.4;;;4.8;;
67344;SDS011;54230;52.402;6.276;2022-08-25T21:05:00;11.3;;;5.0;;
67344;SDS011;54230;52.402;6.276;2022-08-25T21:10:00;10.0;;;5.1;;
67344;SDS011;54230;52.402;6.276;2022-08-25T21:15:00;8.4;;;5.3;;
67344;SDS011;54230;52.402;6.276;2022-08-25T21:20:00;23.0;;;15.4;;
67344;SDS011;54230;52.402;6.276;2022-08-25T21:25:00;34.1;;;24.7;;
67344;SDS011;54230;52.402;6.276;2022-08-25T21:30:00;42.7;;;30.8;;
67344;SDS011;54230;52.402;6.276;2022-08-25T21:35:00;46.4;;;35.2;;
67344;SDS011;54230;52.402;6.276;2022-08-25T21:40:00;52.7;;;36.8;;
67344;SDS011;54230;52.402;6.276;2022-08-25T21:45:00;48.5;;;36.7;;
67344;SDS011;54230;52.402;6.276;2022-08-25T21:50:00;52.4;;;38.9;;
67344;SDS011;54230;52.402;6.276;2022-08-25T21:55:00;52.9;;;40.1;;
67344;SDS011;54230;52.402;6.276;2022-08-25T22:00:00;52.6;;;40.7;;
67344;SDS011;54230;52.402;6.276;2022-08-25T22:05:00;54.3;;;39.6;;
67344;SDS011;54230;52.402;6.276;2022-08-25T22:10:00;54.3;;;39.5;;
67344;SDS011;54230;52.402;6.276;2022-08-25T22:15:00;54.5;;;40.5;;
67344;SDS011;54230;52.402;6.276;2022-08-25T22:20:00;56.4;;;41.7;;
67344;SDS011;54230;52.402;6.276;2022-08-25T22:25:00;56.4;;;41.1;;
67344;SDS011;54230;52.402;6.276;2022-08-25T22:30:00;54.8;;;41.8;;
67344;SDS011;54230;52.402;6.276;2022-08-25T22:35:00;55.4;;;41.0;;
67344;SDS011;54230;52.402;6.276;2022-08-25T22:40:00;55.5;;;40.8;;
67344;SDS011;54230;52.402;6.276;2022-08-25T22:45:00;53.1;;;38.8;;
67344;SDS011;54230;52.402;6.276;2022-08-25T22:50:00;50.1;;;37.1;;
67344;SDS011;54230;52.402;6.276;2022-08-25T22:55:00;54.1;;;38.8;;
67344;SDS011;54230;52.402;6.276;2022-08-25T23:00:00;50.9;;;38.2;;
67344;SDS011;54230;52.402;6.276;2022-08-25T23:05:00;55.0;;;38.0;;
67344;SDS011;54230;52.402;6.276;2022-08-25T23:10:00;55.2;;;37.3;;
67344;SDS011;54230;52.402;6.276;2022-08-25T23:15:00;51.1;;;37.1;;
67344;SDS011;54230;52.402;6.276;2022-08-25T23:20:00;52.9;;;38.6;;
67344;SDS011;54230;52.402;6.276;2022-08-25T23:25:00;50.2;;;38.0;;
67344;SDS011;54230;52.402;6.276;2022-08-25T23:30:00;51.1;;;36.9;;
67344;SDS011;54230;52.402;6.276;2022-08-25T23:35:00;51.9;;;37.3;;
67344;SDS011;54230;52.402;6.276;2022-08-25T23:40:00;51.2;;;36.9;;
67344;SDS011;54230;52.402;6.276;2022-08-25T23:45:00;52.7;;;36.6;;
67344;SDS011;54230;52.402;6.276;2022-08-25T23:50:00;53.0;;;38.5;;
67344;SDS011;54230;52.402;6.276;2022-08-25T23:55:00;51.4;;;35.2;;
